Finley, California
Current Conditions -  °F | °C
As of 5:56 PM on Saturday 25 Oct 2014 (Local Time) from KUKI Reporting Station
Light Rain Light Rain  
Wind Chill: 59°   Ceiling: 2800
Heat Index: 59°   Visibility: 8mi
Dew Point: 54°   Wind: 0mph
Humidity: 83%   Direction: NA
Pressure: 30.04"   Gusts: NA
Location:  39°N, 122.87°W
Report Text: KUKI 260056Z AUTO 00000KT 8SM -RA SCT022 BKN028 OVC036 15/12 A3004 RMK AO2 RAE03B29 SLP167 P0001 T01500122
Loading
Personal Weather Stations






























Interactive Weather Map
Tropical Storm Tracking
New forecast layout! Learn more

10-Day Weather Forecast

Advertisements
Track Severe Weather on mobile